createdAt,value
2024-01-04T00:01:24.092Z,3.75
2024-01-04T00:03:54.549Z,7.00
2024-01-04T00:06:28.067Z,2.00
2024-01-04T00:08:58.392Z,7.00
2024-01-04T00:11:28.704Z,4.00
2024-01-04T00:13:59.061Z,8.00
2024-01-04T00:16:29.315Z,7.25
2024-01-04T00:19:00.854Z,7.00
2024-01-04T00:21:31.233Z,7.00
2024-01-04T00:24:01.423Z,5.50
2024-01-04T00:26:31.943Z,6.75
2024-01-04T00:29:08.932Z,6.25
2024-01-04T00:31:39.167Z,6.50
2024-01-04T00:34:11.688Z,0.00
2024-01-04T00:36:41.835Z,8.00
2024-01-04T00:39:17.051Z,6.75
2024-01-04T00:41:47.210Z,5.00
2024-01-04T00:44:17.562Z,4.00
2024-01-04T00:46:49.005Z,7.25
2024-01-04T00:49:20.529Z,10.75
2024-01-04T00:51:50.650Z,8.00
2024-01-04T00:54:20.732Z,7.00
2024-01-04T00:56:50.944Z,8.25
2024-01-04T00:59:23.127Z,8.50
2024-01-04T01:01:54.772Z,11.00
2024-01-04T01:04:24.914Z,9.50
2024-01-04T01:06:55.159Z,6.00
2024-01-04T01:09:25.565Z,8.00
2024-01-04T01:11:55.738Z,8.25
2024-01-04T01:14:25.808Z,8.75
2024-01-04T01:16:55.965Z,6.25
2024-01-04T01:19:26.359Z,6.25
2024-01-04T01:21:57.253Z,6.00
2024-01-04T01:24:27.359Z,7.50
2024-01-04T01:26:57.583Z,7.25
2024-01-04T01:29:27.778Z,6.50
2024-01-04T01:31:57.944Z,11.25
2024-01-04T01:34:28.282Z,3.75
2024-01-04T01:36:58.648Z,12.50
2024-01-04T01:39:28.827Z,9.00
2024-01-04T01:41:59.051Z,6.50
2024-01-04T01:44:29.159Z,9.50
2024-01-04T01:46:59.520Z,7.00
2024-01-04T01:49:29.757Z,12.00
2024-01-04T01:52:00.514Z,7.00
2024-01-04T01:54:31.093Z,8.50
2024-01-04T01:57:01.752Z,7.50
2024-01-04T01:59:32.245Z,8.50
2024-01-04T02:02:02.962Z,6.50
2024-01-04T02:04:33.430Z,8.75
2024-01-04T02:07:03.760Z,9.00
2024-01-04T02:09:34.158Z,9.00
2024-01-04T02:12:25.257Z,8.00
2024-01-04T02:14:55.580Z,7.75
2024-01-04T02:17:26.477Z,6.00
2024-01-04T02:20:17.410Z,8.50
2024-01-04T02:22:47.783Z,6.00
2024-01-04T02:25:17.905Z,11.00
2024-01-04T02:27:48.069Z,9.00
2024-01-04T02:30:19.085Z,4.75
2024-01-04T02:32:49.485Z,11.75
2024-01-04T02:35:19.613Z,9.25
2024-01-04T02:37:49.721Z,11.25
2024-01-04T02:40:20.414Z,9.50
2024-01-04T02:42:50.652Z,25.25
2024-01-04T02:45:20.850Z,20.00
2024-01-04T02:47:51.240Z,27.25
2024-01-04T02:50:21.777Z,18.00
2024-01-04T02:53:12.902Z,25.00
2024-01-04T02:55:43.271Z,22.25
2024-01-04T02:58:13.577Z,19.00
2024-01-04T03:00:43.880Z,18.00
2024-01-04T03:03:14.081Z,20.25
2024-01-04T03:05:44.443Z,16.25
2024-01-04T03:08:18.755Z,13.00
2024-01-04T03:10:48.969Z,17.50
2024-01-04T03:13:19.188Z,12.75
2024-01-04T03:15:49.385Z,10.00
2024-01-04T03:18:19.966Z,18.75
2024-01-04T03:20:50.501Z,14.50
2024-01-04T03:23:20.674Z,27.00
2024-01-04T03:25:50.923Z,29.50
2024-01-04T03:28:21.145Z,23.25
2024-01-04T03:30:51.309Z,20.50
2024-01-04T03:33:21.575Z,35.00
2024-01-04T03:35:51.994Z,47.00
2024-01-04T03:38:22.376Z,41.25
2024-01-04T03:40:52.667Z,51.25
2024-01-04T03:43:22.902Z,40.50
2024-01-04T03:45:53.098Z,38.00
2024-01-04T03:48:23.337Z,25.50
2024-01-04T03:50:53.653Z,40.75
2024-01-04T03:53:23.754Z,40.50
2024-01-04T03:55:53.850Z,43.75
2024-01-04T03:58:26.960Z,38.25
2024-01-04T04:00:55.772Z,38.25
2024-01-04T04:03:25.935Z,40.50
2024-01-04T04:05:56.293Z,43.25
2024-01-04T04:08:26.568Z,40.25
2024-01-04T04:10:56.782Z,36.50
2024-01-04T04:13:27.201Z,56.20
2024-01-04T04:15:57.405Z,61.20
2024-01-04T04:18:27.590Z,35.50
2024-01-04T04:20:57.894Z,47.50
2024-01-04T04:23:29.288Z,33.25
2024-01-04T04:25:59.466Z,29.00
2024-01-04T04:28:30.787Z,42.50
2024-01-04T04:31:00.976Z,37.75
2024-01-04T04:33:31.527Z,40.25
2024-01-04T04:36:02.646Z,41.00
2024-01-04T04:38:33.636Z,44.00
2024-01-04T04:41:05.738Z,51.75
2024-01-04T04:43:36.563Z,66.25
2024-01-04T04:46:06.693Z,96.00
2024-01-04T04:48:37.098Z,78.20
2024-01-04T04:51:07.496Z,61.25
2024-01-04T04:53:37.806Z,51.25
2024-01-04T04:56:09.689Z,37.50
2024-01-04T04:58:39.888Z,38.25
2024-01-04T05:01:10.066Z,40.75
2024-01-04T05:03:40.831Z,38.00
2024-01-04T05:06:11.164Z,40.75
2024-01-04T05:08:41.978Z,53.00
2024-01-04T05:11:12.176Z,50.50
2024-01-04T05:13:42.300Z,41.50
2024-01-04T05:16:12.545Z,37.75
2024-01-04T05:18:42.844Z,36.00
2024-01-04T05:21:13.036Z,33.00
2024-01-04T05:23:43.323Z,33.50
2024-01-04T05:26:22.507Z,29.75
2024-01-04T05:28:55.987Z,35.25
2024-01-04T05:31:27.369Z,36.75
2024-01-04T05:33:57.879Z,28.00
2024-01-04T05:36:28.358Z,33.50
2024-01-04T05:38:58.770Z,33.00
2024-01-04T05:41:28.972Z,36.25
2024-01-04T05:43:59.226Z,38.25
2024-01-04T05:46:29.298Z,39.25
2024-01-04T05:48:59.668Z,37.25
2024-01-04T05:51:41.800Z,43.25
2024-01-04T05:54:01.660Z,56.75
2024-01-04T05:56:31.783Z,48.75
2024-01-04T05:59:02.082Z,59.75
2024-01-04T06:01:32.474Z,47.00
2024-01-04T06:04:02.821Z,53.00
2024-01-04T06:06:33.370Z,60.25
2024-01-04T06:09:03.562Z,48.50
2024-01-04T06:11:33.787Z,57.25
2024-01-04T06:14:04.074Z,41.25
2024-01-04T06:16:34.874Z,41.50
2024-01-04T06:19:05.210Z,53.00
2024-01-04T06:21:35.327Z,61.25
2024-01-04T06:24:05.943Z,38.75
2024-01-04T06:26:37.011Z,35.00
2024-01-04T06:29:07.153Z,37.00
2024-01-04T06:31:37.534Z,30.75
2024-01-04T06:34:08.104Z,36.00
2024-01-04T06:36:38.706Z,32.00
2024-01-04T06:39:08.964Z,29.25
2024-01-04T06:41:39.239Z,40.25
2024-01-04T06:44:09.493Z,30.00
2024-01-04T06:46:39.797Z,48.50
2024-01-04T06:49:10.150Z,39.25
2024-01-04T06:51:40.345Z,59.25
2024-01-04T06:54:10.672Z,34.50
2024-01-04T06:56:41.026Z,33.25
2024-01-04T06:59:11.206Z,35.75
2024-01-04T07:01:41.461Z,37.00
2024-01-04T07:04:12.080Z,22.75
2024-01-04T07:06:42.133Z,17.50
2024-01-04T07:09:12.287Z,28.50
2024-01-04T07:11:42.423Z,31.50
2024-01-04T07:14:12.495Z,24.80
2024-01-04T07:16:47.729Z,32.25
2024-01-04T07:19:18.050Z,30.75
2024-01-04T07:21:48.280Z,33.25
2024-01-04T07:24:18.559Z,33.75
2024-01-04T07:26:48.981Z,19.75
2024-01-04T07:29:19.159Z,26.00
2024-01-04T07:31:49.472Z,18.00
2024-01-04T07:34:19.892Z,17.25
2024-01-04T07:36:50.178Z,16.25
2024-01-04T07:39:20.720Z,13.50
2024-01-04T07:41:51.036Z,9.00
2024-01-04T07:44:21.393Z,12.25
2024-01-04T07:46:51.874Z,8.25
2024-01-04T07:49:22.397Z,13.25
2024-01-04T07:51:53.696Z,28.00
2024-01-04T07:54:23.950Z,20.25
2024-01-04T07:56:54.550Z,28.00
2024-01-04T07:59:25.160Z,21.75
2024-01-04T08:01:58.415Z,45.50
2024-01-04T08:04:33.242Z,47.75
2024-01-04T08:07:03.684Z,38.50
2024-01-04T08:09:35.847Z,33.25
2024-01-04T08:12:06.357Z,42.00
2024-01-04T08:17:44.871Z,35.50
2024-01-04T08:20:17.077Z,34.50
2024-01-04T08:22:50.447Z,24.50
2024-01-04T08:25:20.637Z,24.50
2024-01-04T08:27:50.909Z,27.25
2024-01-04T08:30:21.661Z,10.50
2024-01-04T08:32:53.666Z,19.75
2024-01-04T08:38:59.597Z,23.00
2024-01-04T08:41:29.781Z,20.50
2024-01-04T08:43:59.876Z,13.50
2024-01-04T08:46:30.337Z,12.25
2024-01-04T08:49:03.622Z,16.50
2024-01-04T08:51:36.581Z,17.00
2024-01-04T08:54:07.303Z,17.00
2024-01-04T08:56:38.126Z,14.75
2024-01-04T08:59:08.344Z,11.50
2024-01-04T09:01:38.533Z,14.00
2024-01-04T09:04:11.132Z,14.25
2024-01-04T09:06:41.723Z,13.25
2024-01-04T09:09:12.129Z,15.50
2024-01-04T09:11:42.859Z,15.00
2024-01-04T09:14:18.428Z,14.00
2024-01-04T09:16:48.633Z,17.00
2024-01-04T09:19:32.677Z,18.50
2024-01-04T09:22:03.104Z,18.50
2024-01-04T09:24:34.521Z,20.00
2024-01-04T09:27:05.212Z,13.50
2024-01-04T09:29:38.319Z,16.00
2024-01-04T09:32:12.660Z,12.75
2024-01-04T09:34:42.969Z,14.00
2024-01-04T09:37:13.410Z,14.50
2024-01-04T09:39:43.664Z,14.50
2024-01-04T09:42:16.946Z,16.25
2024-01-04T09:44:54.666Z,19.50
2024-01-04T09:47:25.565Z,14.50
2024-01-04T09:49:56.494Z,18.25
2024-01-04T09:52:27.495Z,16.75
2024-01-04T09:54:59.654Z,17.25
2024-01-04T09:57:31.434Z,9.75
2024-01-04T10:00:02.023Z,15.75
2024-01-04T10:02:36.122Z,14.75
2024-01-04T10:05:11.294Z,16.00
2024-01-04T10:07:56.808Z,16.00
2024-01-04T10:10:39.207Z,15.50
2024-01-04T10:13:57.183Z,17.00
2024-01-04T10:16:09.163Z,17.00
2024-01-04T10:22:05.579Z,16.50
2024-01-04T10:25:07.865Z,5.00
2024-01-04T10:27:35.252Z,15.75
2024-01-04T10:30:13.112Z,15.25
2024-01-04T10:32:46.627Z,20.50
2024-01-04T10:35:17.092Z,10.00
2024-01-04T10:37:50.519Z,16.00
2024-01-04T10:40:21.245Z,15.50
2024-01-04T10:43:03.084Z,17.50
2024-01-04T10:45:35.158Z,16.50
2024-01-04T10:48:05.924Z,11.25
2024-01-04T10:50:42.049Z,16.00
2024-01-04T10:53:13.709Z,16.50
2024-01-04T10:55:45.595Z,9.50
2024-01-04T10:58:19.495Z,14.25
2024-01-04T11:00:49.843Z,15.75
2024-01-04T11:03:32.079Z,16.50
2024-01-04T11:06:02.758Z,14.75
2024-01-04T11:08:54.441Z,12.75
2024-01-04T11:11:26.488Z,12.00
2024-01-04T11:15:13.202Z,15.00
2024-01-04T11:17:06.286Z,15.00
2024-01-04T11:22:35.231Z,18.25
2024-01-04T11:25:22.615Z,14.00
2024-01-04T11:27:53.470Z,14.00
2024-01-04T11:30:30.462Z,14.50
2024-01-04T11:33:01.303Z,9.50
2024-01-04T11:35:40.758Z,14.00
2024-01-04T11:38:10.977Z,17.25
2024-01-04T11:40:44.242Z,15.00
2024-01-04T11:43:16.953Z,17.50
2024-01-04T11:45:48.574Z,18.00
2024-01-04T11:48:26.255Z,11.50
2024-01-04T11:50:54.038Z,17.50
2024-01-04T11:53:26.607Z,17.00
2024-01-04T11:56:08.937Z,17.00
2024-01-04T11:58:39.358Z,15.50
2024-01-04T12:01:09.845Z,16.00
2024-01-04T12:03:42.355Z,13.25
2024-01-04T12:06:13.502Z,8.25
2024-01-04T12:08:46.626Z,11.50
2024-01-04T12:11:20.320Z,14.25
2024-01-04T12:13:51.113Z,14.00
2024-01-04T12:16:21.378Z,11.25
2024-01-04T12:18:51.667Z,14.50
2024-01-04T12:21:22.257Z,12.00
2024-01-04T12:23:56.672Z,11.25
2024-01-04T12:26:33.299Z,11.25
2024-01-04T12:29:08.292Z,11.00
2024-01-04T12:31:38.930Z,16.25
2024-01-04T12:34:14.046Z,11.00
2024-01-04T12:36:45.452Z,9.50
2024-01-04T12:39:20.189Z,11.75
2024-01-04T12:41:51.006Z,11.25
2024-01-04T12:44:21.455Z,11.50
2024-01-04T12:46:52.872Z,15.00
2024-01-04T12:49:25.447Z,12.50
2024-01-04T12:51:54.979Z,13.25
2024-01-04T12:54:26.341Z,13.75
2024-01-04T12:56:58.855Z,11.00
2024-01-04T12:59:30.201Z,11.00
2024-01-04T13:02:00.762Z,15.00
2024-01-04T13:04:31.856Z,12.00
2024-01-04T13:07:02.295Z,15.25
2024-01-04T13:09:33.175Z,15.75
2024-01-04T13:12:05.968Z,13.25
2024-01-04T13:14:36.625Z,11.50
2024-01-04T13:17:09.971Z,10.25
2024-01-04T13:19:40.486Z,10.00
2024-01-04T13:22:11.003Z,14.50
2024-01-04T13:24:42.787Z,11.00
2024-01-04T13:27:22.737Z,11.50
2024-01-04T13:29:53.148Z,12.75
2024-01-04T13:32:23.629Z,13.50
2024-01-04T13:34:56.510Z,10.25
2024-01-04T13:37:28.660Z,14.00
2024-01-04T13:39:58.870Z,14.50
2024-01-04T13:42:29.289Z,10.75
2024-01-04T13:45:02.746Z,14.00
2024-01-04T13:47:36.702Z,11.00
2024-01-04T13:50:07.346Z,17.00
2024-01-04T13:56:17.248Z,17.50
2024-01-04T14:01:45.787Z,15.50
2024-01-04T14:04:16.139Z,11.25
2024-01-04T14:06:47.989Z,14.25
2024-01-04T14:09:19.932Z,15.25
2024-01-04T14:11:50.250Z,14.00
2024-01-04T14:14:22.139Z,11.50
2024-01-04T14:16:55.248Z,17.00
2024-01-04T14:19:25.625Z,19.25
2024-01-04T14:21:55.988Z,10.50
2024-01-04T14:24:27.803Z,15.00
2024-01-04T14:27:00.810Z,14.00
2024-01-04T14:29:34.278Z,14.75
2024-01-04T14:32:04.742Z,16.50
2024-01-04T14:34:35.368Z,15.50
2024-01-04T14:37:05.785Z,17.25
2024-01-04T14:39:40.063Z,16.25
2024-01-04T14:42:10.443Z,15.75
2024-01-04T14:44:43.610Z,16.75
2024-01-04T14:47:13.984Z,24.25
2024-01-04T14:49:44.491Z,21.75
2024-01-04T14:52:15.149Z,23.75
2024-01-04T14:54:46.588Z,34.50
2024-01-04T14:57:16.863Z,30.25
2024-01-04T14:59:47.142Z,31.25
2024-01-04T15:02:17.523Z,33.00
2024-01-04T15:04:47.761Z,36.75
2024-01-04T15:07:17.973Z,28.50
2024-01-04T15:09:48.173Z,35.75
2024-01-04T15:12:18.492Z,35.50
2024-01-04T15:14:48.745Z,34.50
2024-01-04T15:17:18.949Z,36.25
2024-01-04T15:19:49.549Z,36.67
2024-01-04T15:22:20.462Z,33.50
2024-01-04T15:24:50.974Z,33.00
2024-01-04T15:30:33.329Z,34.00
2024-01-04T15:33:05.120Z,33.75
2024-01-04T15:35:36.081Z,34.00
2024-01-04T15:38:06.478Z,39.00
2024-01-04T15:40:36.857Z,41.00
2024-01-04T15:43:08.702Z,39.50
2024-01-04T15:45:39.088Z,39.25
2024-01-04T15:48:16.910Z,40.25
2024-01-04T15:50:49.281Z,44.50
2024-01-04T15:53:19.719Z,39.00
2024-01-04T15:55:50.081Z,43.50
2024-01-04T15:58:20.594Z,35.25
2024-01-04T16:00:53.000Z,28.50
2024-01-04T16:03:23.466Z,28.50
2024-01-04T16:05:54.045Z,27.00
2024-01-04T16:08:24.385Z,23.00
2024-01-04T16:10:54.640Z,22.00
2024-01-04T16:13:26.775Z,21.00
2024-01-04T16:15:57.287Z,15.75
2024-01-04T16:18:27.803Z,19.25
2024-01-04T16:20:58.184Z,14.00
2024-01-04T16:23:28.786Z,19.50
2024-01-04T16:25:59.188Z,14.50
2024-01-04T16:28:34.996Z,15.25
2024-01-04T16:31:07.132Z,18.50
2024-01-04T16:33:37.657Z,16.25
2024-01-04T16:36:08.334Z,12.00
2024-01-04T16:38:38.943Z,15.00
2024-01-04T16:41:12.427Z,15.25
2024-01-04T16:43:42.729Z,20.50
2024-01-04T16:46:26.084Z,18.25
2024-01-04T16:48:56.693Z,16.75
2024-01-04T16:51:30.046Z,14.50
2024-01-04T16:54:24.001Z,16.00
2024-01-04T16:56:51.848Z,11.25
2024-01-04T16:59:22.321Z,17.75
2024-01-04T17:01:54.272Z,20.25
2024-01-04T17:05:31.468Z,13.25
2024-01-04T17:07:18.622Z,18.50
2024-01-04T17:09:52.201Z,19.50
2024-01-04T17:15:55.883Z,17.50
2024-01-04T17:21:23.862Z,14.75
2024-01-04T17:22:01.735Z,24.00
2024-01-04T17:23:54.479Z,16.00
2024-01-04T17:26:24.894Z,15.50
2024-01-04T17:28:55.477Z,13.25
2024-01-04T17:31:27.313Z,14.50
2024-01-04T17:33:58.152Z,16.75
2024-01-04T17:36:32.659Z,19.50
2024-01-04T17:39:06.794Z,19.00
2024-01-04T17:41:37.622Z,22.75
2024-01-04T17:47:54.775Z,19.25
2024-01-04T17:49:54.887Z,14.00
2024-01-04T17:52:30.914Z,21.00
2024-01-04T17:55:06.945Z,19.00
2024-01-04T18:00:37.836Z,19.50
2024-01-04T18:06:05.121Z,17.00
2024-01-04T18:06:09.136Z,18.00
2024-01-04T18:09:54.835Z,21.50
2024-01-04T18:14:13.213Z,19.00
2024-01-04T18:16:52.604Z,19.50
2024-01-04T18:19:33.392Z,14.25
2024-01-04T18:22:04.068Z,19.50
2024-01-04T18:24:38.427Z,19.00
2024-01-04T18:27:16.476Z,18.50
2024-01-04T18:29:46.801Z,15.50
2024-01-04T18:32:20.465Z,3.00
2024-01-04T18:34:54.866Z,20.00
2024-01-04T18:37:35.692Z,18.50
2024-01-04T18:43:28.748Z,21.25
2024-01-04T18:49:09.479Z,14.00
2024-01-04T18:51:41.002Z,18.75
2024-01-04T18:54:13.108Z,19.75
2024-01-04T18:56:47.820Z,20.00
2024-01-04T18:59:17.984Z,18.50
2024-01-04T19:01:49.887Z,13.75
2024-01-04T19:05:08.011Z,15.50
2024-01-04T19:07:25.544Z,18.25
2024-01-04T19:09:56.945Z,17.75
2024-01-04T19:15:59.401Z,24.00
2024-01-04T19:18:33.014Z,9.75
2024-01-04T19:21:13.760Z,20.25
2024-01-04T19:23:45.885Z,20.00
2024-01-04T19:26:18.480Z,19.00
2024-01-04T19:28:59.169Z,22.25
2024-01-04T19:31:30.220Z,20.00
2024-01-04T19:34:17.803Z,21.75
2024-01-04T19:36:57.561Z,20.25
2024-01-04T19:39:33.993Z,30.25
2024-01-04T19:42:18.867Z,30.75
2024-01-04T19:45:00.433Z,30.75
2024-01-04T19:47:49.769Z,32.25
2024-01-04T19:50:29.346Z,27.00
2024-01-04T19:53:04.003Z,26.25
2024-01-04T19:56:04.829Z,19.25
2024-01-04T19:58:37.920Z,28.00
2024-01-04T20:01:11.697Z,24.50
2024-01-04T20:03:45.104Z,31.25
2024-01-04T20:06:43.677Z,30.50
2024-01-04T20:09:45.840Z,29.50
2024-01-04T20:12:16.483Z,30.25
2024-01-04T20:14:55.103Z,25.00
2024-01-04T20:17:47.356Z,17.00
2024-01-04T20:20:23.960Z,22.25
2024-01-04T20:23:14.132Z,17.25
2024-01-04T20:28:46.042Z,12.00
2024-01-04T20:34:17.282Z,12.75
2024-01-04T20:34:43.917Z,11.25
2024-01-04T20:43:31.784Z,23.00
2024-01-04T20:46:16.597Z,21.25
2024-01-04T20:48:50.310Z,19.50
2024-01-04T20:51:24.219Z,17.50
2024-01-04T20:56:54.636Z,12.25
2024-01-04T20:59:31.433Z,17.75
2024-01-04T21:02:05.008Z,17.50
2024-01-04T21:04:38.730Z,17.25
2024-01-04T21:07:09.066Z,15.25
2024-01-04T21:09:43.778Z,15.25
2024-01-04T21:12:22.835Z,16.50
2024-01-04T21:37:07.812Z,22.25
2024-01-04T21:39:38.143Z,20.00
2024-01-04T21:42:09.148Z,20.50
2024-01-04T21:44:39.657Z,21.75
2024-01-04T21:47:11.540Z,24.50
2024-01-04T21:49:46.033Z,19.25
2024-01-04T21:52:16.408Z,25.00
2024-01-04T21:54:48.479Z,25.25
2024-01-04T21:57:18.855Z,12.50
2024-01-04T21:59:50.529Z,14.75
2024-01-04T22:02:23.519Z,13.75
2024-01-04T22:04:53.768Z,18.75
2024-01-04T22:07:24.048Z,18.00
2024-01-04T22:09:54.307Z,14.25
2024-01-04T22:12:24.612Z,13.50
2024-01-04T22:15:03.805Z,13.75
2024-01-04T22:17:34.116Z,19.25
2024-01-04T22:20:06.102Z,23.00
2024-01-04T22:22:36.670Z,17.25
2024-01-04T22:25:07.166Z,13.25
2024-01-04T22:27:37.596Z,13.75
2024-01-04T22:30:08.846Z,17.00
2024-01-04T22:32:39.328Z,20.25
2024-01-04T22:35:09.943Z,19.75
2024-01-04T22:37:40.087Z,24.00
2024-01-04T22:40:12.291Z,23.25
2024-01-04T22:42:42.456Z,13.25
2024-01-04T22:45:12.841Z,18.75
2024-01-04T22:50:32.465Z,23.25
2024-01-04T23:06:23.365Z,24.00
2024-01-04T23:09:19.002Z,26.50
2024-01-04T23:11:53.865Z,27.75
2024-01-04T23:14:25.824Z,26.50
2024-01-04T23:19:51.299Z,25.00
2024-01-04T23:22:21.933Z,26.25
2024-01-04T23:24:54.870Z,18.25
2024-01-04T23:27:25.138Z,29.00
2024-01-04T23:29:57.041Z,26.25
2024-01-04T23:46:55.570Z,22.50
2024-01-04T23:49:25.825Z,21.75
2024-01-04T23:51:58.508Z,19.25
2024-01-04T23:54:29.554Z,22.50
2024-01-04T23:56:59.739Z,20.25
2024-01-04T23:59:31.346Z,17.25
